sensor_id;sensor_type;location;lat;lon;timestamp;P1;durP1;ratioP1;P2;durP2;ratioP2
17953;SDS011;9102;53.548;9.926;2023-12-04T00:00:36;44.08;;;16.23;;
17953;SDS011;9102;53.548;9.926;2023-12-04T00:03:03;47.55;;;17.52;;
17953;SDS011;9102;53.548;9.926;2023-12-04T00:05:30;40.25;;;16.40;;
17953;SDS011;9102;53.548;9.926;2023-12-04T00:07:57;43.90;;;16.45;;
17953;SDS011;9102;53.548;9.926;2023-12-04T00:10:24;40.30;;;16.17;;
17953;SDS011;9102;53.548;9.926;2023-12-04T00:12:51;38.78;;;15.95;;
17953;SDS011;9102;53.548;9.926;2023-12-04T00:15:18;37.72;;;15.90;;
17953;SDS011;9102;53.548;9.926;2023-12-04T00:17:49;40.77;;;14.77;;
17953;SDS011;9102;53.548;9.926;2023-12-04T00:20:16;41.03;;;16.40;;
17953;SDS011;9102;53.548;9.926;2023-12-04T00:22:42;35.63;;;14.68;;
17953;SDS011;9102;53.548;9.926;2023-12-04T00:25:09;38.45;;;15.27;;
17953;SDS011;9102;53.548;9.926;2023-12-04T00:27:36;39.53;;;16.08;;
17953;SDS011;9102;53.548;9.926;2023-12-04T00:30:03;35.70;;;15.15;;
17953;SDS011;9102;53.548;9.926;2023-12-04T00:32:31;35.40;;;14.68;;
17953;SDS011;9102;53.548;9.926;2023-12-04T00:34:59;42.47;;;16.55;;
17953;SDS011;9102;53.548;9.926;2023-12-04T00:37:26;40.53;;;14.63;;
17953;SDS011;9102;53.548;9.926;2023-12-04T00:39:53;36.00;;;14.40;;
17953;SDS011;9102;53.548;9.926;2023-12-04T00:42:20;35.42;;;14.52;;
17953;SDS011;9102;53.548;9.926;2023-12-04T00:44:47;42.17;;;15.43;;
17953;SDS011;9102;53.548;9.926;2023-12-04T00:47:13;36.55;;;14.98;;
17953;SDS011;9102;53.548;9.926;2023-12-04T00:49:40;36.35;;;15.32;;
17953;SDS011;9102;53.548;9.926;2023-12-04T00:52:09;35.15;;;14.45;;
17953;SDS011;9102;53.548;9.926;2023-12-04T00:54:38;39.65;;;15.93;;
17953;SDS011;9102;53.548;9.926;2023-12-04T00:57:05;36.90;;;14.82;;
17953;SDS011;9102;53.548;9.926;2023-12-04T00:59:32;32.90;;;13.48;;
17953;SDS011;9102;53.548;9.926;2023-12-04T01:01:58;35.15;;;14.27;;
17953;SDS011;9102;53.548;9.926;2023-12-04T01:04:25;37.58;;;14.80;;
17953;SDS011;9102;53.548;9.926;2023-12-04T01:06:54;39.50;;;14.68;;
17953;SDS011;9102;53.548;9.926;2023-12-04T01:09:22;35.92;;;14.73;;
17953;SDS011;9102;53.548;9.926;2023-12-04T01:11:50;38.67;;;16.02;;
17953;SDS011;9102;53.548;9.926;2023-12-04T01:14:17;37.90;;;14.70;;
17953;SDS011;9102;53.548;9.926;2023-12-04T01:16:44;32.78;;;15.05;;
17953;SDS011;9102;53.548;9.926;2023-12-04T01:19:11;39.38;;;15.65;;
17953;SDS011;9102;53.548;9.926;2023-12-04T01:21:38;39.08;;;15.02;;
17953;SDS011;9102;53.548;9.926;2023-12-04T01:24:05;41.65;;;16.25;;
17953;SDS011;9102;53.548;9.926;2023-12-04T01:26:33;32.50;;;14.70;;
17953;SDS011;9102;53.548;9.926;2023-12-04T01:29:00;36.95;;;14.65;;
17953;SDS011;9102;53.548;9.926;2023-12-04T01:31:27;34.83;;;14.93;;
17953;SDS011;9102;53.548;9.926;2023-12-04T01:33:53;36.05;;;14.93;;
17953;SDS011;9102;53.548;9.926;2023-12-04T01:36:22;34.28;;;14.30;;
17953;SDS011;9102;53.548;9.926;2023-12-04T01:38:48;38.88;;;15.70;;
17953;SDS011;9102;53.548;9.926;2023-12-04T01:41:15;36.50;;;15.23;;
17953;SDS011;9102;53.548;9.926;2023-12-04T01:43:43;36.67;;;15.00;;
17953;SDS011;9102;53.548;9.926;2023-12-04T01:46:10;35.60;;;15.25;;
17953;SDS011;9102;53.548;9.926;2023-12-04T01:48:37;34.38;;;13.77;;
17953;SDS011;9102;53.548;9.926;2023-12-04T01:51:05;33.67;;;14.73;;
17953;SDS011;9102;53.548;9.926;2023-12-04T01:53:35;42.22;;;15.57;;
17953;SDS011;9102;53.548;9.926;2023-12-04T01:56:04;33.97;;;14.30;;
17953;SDS011;9102;53.548;9.926;2023-12-04T01:58:32;40.28;;;14.35;;
17953;SDS011;9102;53.548;9.926;2023-12-04T02:01:01;36.75;;;14.13;;
17953;SDS011;9102;53.548;9.926;2023-12-04T02:03:29;35.03;;;14.48;;
17953;SDS011;9102;53.548;9.926;2023-12-04T02:05:56;39.60;;;14.43;;
17953;SDS011;9102;53.548;9.926;2023-12-04T02:08:27;41.05;;;14.88;;
17953;SDS011;9102;53.548;9.926;2023-12-04T02:10:55;40.90;;;15.10;;
17953;SDS011;9102;53.548;9.926;2023-12-04T02:13:21;34.83;;;15.10;;
17953;SDS011;9102;53.548;9.926;2023-12-04T02:15:49;42.97;;;16.20;;
17953;SDS011;9102;53.548;9.926;2023-12-04T02:18:21;35.10;;;13.55;;
17953;SDS011;9102;53.548;9.926;2023-12-04T02:20:49;34.55;;;13.73;;
17953;SDS011;9102;53.548;9.926;2023-12-04T02:23:15;39.60;;;16.05;;
17953;SDS011;9102;53.548;9.926;2023-12-04T02:25:44;37.58;;;14.40;;
17953;SDS011;9102;53.548;9.926;2023-12-04T02:28:11;36.80;;;14.13;;
17953;SDS011;9102;53.548;9.926;2023-12-04T02:30:43;35.95;;;13.82;;
17953;SDS011;9102;53.548;9.926;2023-12-04T02:33:11;40.20;;;14.07;;
17953;SDS011;9102;53.548;9.926;2023-12-04T02:35:40;35.40;;;14.00;;
17953;SDS011;9102;53.548;9.926;2023-12-04T02:38:08;34.20;;;14.27;;
17953;SDS011;9102;53.548;9.926;2023-12-04T02:40:36;42.38;;;14.90;;
17953;SDS011;9102;53.548;9.926;2023-12-04T02:43:04;34.22;;;14.20;;
17953;SDS011;9102;53.548;9.926;2023-12-04T02:45:31;33.05;;;14.20;;
17953;SDS011;9102;53.548;9.926;2023-12-04T02:47:58;36.78;;;14.80;;
17953;SDS011;9102;53.548;9.926;2023-12-04T02:50:24;41.35;;;15.13;;
17953;SDS011;9102;53.548;9.926;2023-12-04T02:52:51;36.85;;;14.30;;
17953;SDS011;9102;53.548;9.926;2023-12-04T02:55:18;37.03;;;15.10;;
17953;SDS011;9102;53.548;9.926;2023-12-04T02:57:47;37.25;;;15.23;;
17953;SDS011;9102;53.548;9.926;2023-12-04T03:00:16;34.50;;;14.40;;
17953;SDS011;9102;53.548;9.926;2023-12-04T03:02:43;39.97;;;15.13;;
17953;SDS011;9102;53.548;9.926;2023-12-04T03:05:10;37.85;;;14.90;;
17953;SDS011;9102;53.548;9.926;2023-12-04T03:07:38;36.60;;;14.97;;
17953;SDS011;9102;53.548;9.926;2023-12-04T03:10:05;38.08;;;15.25;;
17953;SDS011;9102;53.548;9.926;2023-12-04T03:12:32;33.97;;;14.13;;
17953;SDS011;9102;53.548;9.926;2023-12-04T03:14:59;36.40;;;14.93;;
17953;SDS011;9102;53.548;9.926;2023-12-04T03:17:27;37.67;;;15.23;;
17953;SDS011;9102;53.548;9.926;2023-12-04T03:19:54;39.08;;;15.82;;
17953;SDS011;9102;53.548;9.926;2023-12-04T03:22:21;34.38;;;13.73;;
17953;SDS011;9102;53.548;9.926;2023-12-04T03:24:47;37.35;;;14.80;;
17953;SDS011;9102;53.548;9.926;2023-12-04T03:27:14;35.47;;;14.13;;
17953;SDS011;9102;53.548;9.926;2023-12-04T03:29:41;36.28;;;14.05;;
17953;SDS011;9102;53.548;9.926;2023-12-04T03:32:08;39.40;;;15.20;;
17953;SDS011;9102;53.548;9.926;2023-12-04T03:34:36;33.20;;;14.52;;
17953;SDS011;9102;53.548;9.926;2023-12-04T03:37:03;30.92;;;12.27;;
17953;SDS011;9102;53.548;9.926;2023-12-04T03:39:30;33.83;;;13.80;;
17953;SDS011;9102;53.548;9.926;2023-12-04T03:41:57;37.78;;;14.30;;
17953;SDS011;9102;53.548;9.926;2023-12-04T03:44:24;40.38;;;15.13;;
17953;SDS011;9102;53.548;9.926;2023-12-04T03:46:51;34.35;;;13.88;;
17953;SDS011;9102;53.548;9.926;2023-12-04T03:49:18;32.83;;;13.07;;
17953;SDS011;9102;53.548;9.926;2023-12-04T03:51:46;33.08;;;13.77;;
17953;SDS011;9102;53.548;9.926;2023-12-04T03:54:13;31.75;;;13.00;;
17953;SDS011;9102;53.548;9.926;2023-12-04T03:56:39;33.53;;;13.20;;
17953;SDS011;9102;53.548;9.926;2023-12-04T03:59:08;31.83;;;13.60;;
17953;SDS011;9102;53.548;9.926;2023-12-04T04:01:35;31.90;;;12.88;;
17953;SDS011;9102;53.548;9.926;2023-12-04T04:04:02;34.40;;;13.90;;
17953;SDS011;9102;53.548;9.926;2023-12-04T04:06:29;31.17;;;13.20;;
17953;SDS011;9102;53.548;9.926;2023-12-04T04:08:57;29.30;;;13.25;;
17953;SDS011;9102;53.548;9.926;2023-12-04T04:11:24;36.20;;;13.25;;
17953;SDS011;9102;53.548;9.926;2023-12-04T04:13:51;31.85;;;12.80;;
17953;SDS011;9102;53.548;9.926;2023-12-04T04:16:18;35.65;;;13.80;;
17953;SDS011;9102;53.548;9.926;2023-12-04T04:18:44;28.85;;;12.25;;
17953;SDS011;9102;53.548;9.926;2023-12-04T04:21:11;35.22;;;13.20;;
17953;SDS011;9102;53.548;9.926;2023-12-04T04:23:38;28.50;;;11.43;;
17953;SDS011;9102;53.548;9.926;2023-12-04T04:26:06;31.75;;;12.57;;
17953;SDS011;9102;53.548;9.926;2023-12-04T04:28:33;33.70;;;13.07;;
17953;SDS011;9102;53.548;9.926;2023-12-04T04:31:00;30.13;;;12.52;;
17953;SDS011;9102;53.548;9.926;2023-12-04T04:33:27;32.42;;;12.57;;
17953;SDS011;9102;53.548;9.926;2023-12-04T04:35:53;30.25;;;12.52;;
17953;SDS011;9102;53.548;9.926;2023-12-04T04:38:20;30.75;;;12.07;;
17953;SDS011;9102;53.548;9.926;2023-12-04T04:40:47;30.70;;;12.45;;
17953;SDS011;9102;53.548;9.926;2023-12-04T04:43:15;31.27;;;12.15;;
17953;SDS011;9102;53.548;9.926;2023-12-04T04:45:42;31.50;;;12.38;;
17953;SDS011;9102;53.548;9.926;2023-12-04T04:48:09;32.92;;;12.85;;
17953;SDS011;9102;53.548;9.926;2023-12-04T04:50:35;33.65;;;12.65;;
17953;SDS011;9102;53.548;9.926;2023-12-04T04:53:02;32.95;;;12.27;;
17953;SDS011;9102;53.548;9.926;2023-12-04T04:55:29;30.52;;;12.77;;
17953;SDS011;9102;53.548;9.926;2023-12-04T04:57:56;32.95;;;12.85;;
17953;SDS011;9102;53.548;9.926;2023-12-04T05:00:25;29.25;;;12.77;;
17953;SDS011;9102;53.548;9.926;2023-12-04T05:02:51;33.05;;;13.07;;
17953;SDS011;9102;53.548;9.926;2023-12-04T05:05:18;35.83;;;13.05;;
17953;SDS011;9102;53.548;9.926;2023-12-04T05:07:45;35.95;;;13.00;;
17953;SDS011;9102;53.548;9.926;2023-12-04T05:10:12;34.15;;;13.00;;
17953;SDS011;9102;53.548;9.926;2023-12-04T05:12:39;34.10;;;13.98;;
17953;SDS011;9102;53.548;9.926;2023-12-04T05:15:06;32.42;;;13.45;;
17953;SDS011;9102;53.548;9.926;2023-12-04T05:17:34;36.33;;;13.43;;
17953;SDS011;9102;53.548;9.926;2023-12-04T05:20:01;33.08;;;13.45;;
17953;SDS011;9102;53.548;9.926;2023-12-04T05:22:28;31.08;;;12.40;;
17953;SDS011;9102;53.548;9.926;2023-12-04T05:24:55;35.20;;;14.00;;
17953;SDS011;9102;53.548;9.926;2023-12-04T05:27:22;35.28;;;13.85;;
17953;SDS011;9102;53.548;9.926;2023-12-04T05:29:51;34.75;;;14.05;;
17953;SDS011;9102;53.548;9.926;2023-12-04T05:32:18;35.17;;;12.90;;
17953;SDS011;9102;53.548;9.926;2023-12-04T05:34:47;30.95;;;13.15;;
17953;SDS011;9102;53.548;9.926;2023-12-04T05:37:13;37.80;;;13.50;;
17953;SDS011;9102;53.548;9.926;2023-12-04T05:39:41;36.85;;;13.07;;
17953;SDS011;9102;53.548;9.926;2023-12-04T05:42:07;31.80;;;12.43;;
17953;SDS011;9102;53.548;9.926;2023-12-04T05:44:34;32.95;;;13.07;;
17953;SDS011;9102;53.548;9.926;2023-12-04T05:47:00;29.70;;;11.70;;
17953;SDS011;9102;53.548;9.926;2023-12-04T05:49:27;30.27;;;12.10;;
17953;SDS011;9102;53.548;9.926;2023-12-04T05:51:57;30.10;;;12.85;;
17953;SDS011;9102;53.548;9.926;2023-12-04T05:54:23;33.05;;;13.20;;
17953;SDS011;9102;53.548;9.926;2023-12-04T05:56:50;31.60;;;12.38;;
17953;SDS011;9102;53.548;9.926;2023-12-04T05:59:17;36.25;;;13.57;;
17953;SDS011;9102;53.548;9.926;2023-12-04T06:01:44;32.90;;;13.13;;
17953;SDS011;9102;53.548;9.926;2023-12-04T06:04:11;33.90;;;12.77;;
17953;SDS011;9102;53.548;9.926;2023-12-04T06:06:37;32.42;;;13.43;;
17953;SDS011;9102;53.548;9.926;2023-12-04T06:09:06;33.03;;;13.63;;
17953;SDS011;9102;53.548;9.926;2023-12-04T06:11:32;32.60;;;12.70;;
17953;SDS011;9102;53.548;9.926;2023-12-04T06:13:59;32.17;;;12.88;;
17953;SDS011;9102;53.548;9.926;2023-12-04T06:16:26;33.50;;;13.85;;
17953;SDS011;9102;53.548;9.926;2023-12-04T06:18:53;36.13;;;13.40;;
17953;SDS011;9102;53.548;9.926;2023-12-04T06:21:19;36.58;;;13.88;;
17953;SDS011;9102;53.548;9.926;2023-12-04T06:23:47;37.58;;;14.52;;
17953;SDS011;9102;53.548;9.926;2023-12-04T06:26:15;42.65;;;14.02;;
17953;SDS011;9102;53.548;9.926;2023-12-04T06:28:43;41.83;;;15.10;;
17953;SDS011;9102;53.548;9.926;2023-12-04T06:31:10;41.05;;;15.70;;
17953;SDS011;9102;53.548;9.926;2023-12-04T06:33:39;39.13;;;15.43;;
17953;SDS011;9102;53.548;9.926;2023-12-04T06:36:06;39.40;;;14.82;;
17953;SDS011;9102;53.548;9.926;2023-12-04T06:38:35;37.97;;;14.52;;
17953;SDS011;9102;53.548;9.926;2023-12-04T06:41:07;40.33;;;15.80;;
17953;SDS011;9102;53.548;9.926;2023-12-04T06:43:36;45.75;;;17.05;;
17953;SDS011;9102;53.548;9.926;2023-12-04T06:46:04;46.20;;;15.98;;
17953;SDS011;9102;53.548;9.926;2023-12-04T06:48:32;42.30;;;15.63;;
17953;SDS011;9102;53.548;9.926;2023-12-04T06:50:59;42.42;;;15.63;;
17953;SDS011;9102;53.548;9.926;2023-12-04T06:53:26;41.60;;;16.13;;
17953;SDS011;9102;53.548;9.926;2023-12-04T06:55:53;44.70;;;16.70;;
17953;SDS011;9102;53.548;9.926;2023-12-04T06:58:20;48.50;;;16.70;;
17953;SDS011;9102;53.548;9.926;2023-12-04T07:00:48;49.88;;;17.20;;
17953;SDS011;9102;53.548;9.926;2023-12-04T07:03:15;46.03;;;16.42;;
17953;SDS011;9102;53.548;9.926;2023-12-04T07:05:42;46.75;;;18.30;;
17953;SDS011;9102;53.548;9.926;2023-12-04T07:08:09;48.20;;;16.85;;
17953;SDS011;9102;53.548;9.926;2023-12-04T07:10:36;42.97;;;16.83;;
17953;SDS011;9102;53.548;9.926;2023-12-04T07:13:03;46.53;;;16.20;;
17953;SDS011;9102;53.548;9.926;2023-12-04T07:15:30;46.60;;;16.70;;
17953;SDS011;9102;53.548;9.926;2023-12-04T07:17:58;46.33;;;16.50;;
17953;SDS011;9102;53.548;9.926;2023-12-04T07:20:24;44.22;;;17.20;;
17953;SDS011;9102;53.548;9.926;2023-12-04T07:22:51;46.13;;;18.35;;
17953;SDS011;9102;53.548;9.926;2023-12-04T07:25:18;47.80;;;18.17;;
17953;SDS011;9102;53.548;9.926;2023-12-04T07:27:45;47.10;;;18.20;;
17953;SDS011;9102;53.548;9.926;2023-12-04T07:30:12;47.88;;;18.85;;
17953;SDS011;9102;53.548;9.926;2023-12-04T07:32:39;50.97;;;19.17;;
17953;SDS011;9102;53.548;9.926;2023-12-04T07:35:08;49.03;;;18.83;;
17953;SDS011;9102;53.548;9.926;2023-12-04T07:37:35;59.95;;;22.15;;
17953;SDS011;9102;53.548;9.926;2023-12-04T07:40:02;56.50;;;20.40;;
17953;SDS011;9102;53.548;9.926;2023-12-04T07:42:30;52.42;;;19.35;;
17953;SDS011;9102;53.548;9.926;2023-12-04T07:44:57;53.60;;;18.15;;
17953;SDS011;9102;53.548;9.926;2023-12-04T07:47:24;51.60;;;19.52;;
17953;SDS011;9102;53.548;9.926;2023-12-04T07:49:51;52.47;;;20.40;;
17953;SDS011;9102;53.548;9.926;2023-12-04T07:52:19;44.25;;;17.38;;
17953;SDS011;9102;53.548;9.926;2023-12-04T07:54:46;48.00;;;18.40;;
17953;SDS011;9102;53.548;9.926;2023-12-04T07:57:12;52.15;;;17.48;;
17953;SDS011;9102;53.548;9.926;2023-12-04T07:59:39;48.15;;;17.90;;
17953;SDS011;9102;53.548;9.926;2023-12-04T08:02:07;56.78;;;18.83;;
17953;SDS011;9102;53.548;9.926;2023-12-04T08:04:34;53.72;;;18.17;;
17953;SDS011;9102;53.548;9.926;2023-12-04T08:07:01;48.63;;;17.67;;
17953;SDS011;9102;53.548;9.926;2023-12-04T08:09:29;51.13;;;18.65;;
17953;SDS011;9102;53.548;9.926;2023-12-04T08:11:56;51.53;;;17.80;;
17953;SDS011;9102;53.548;9.926;2023-12-04T08:14:23;43.08;;;17.30;;
17953;SDS011;9102;53.548;9.926;2023-12-04T08:16:51;50.72;;;16.92;;
17953;SDS011;9102;53.548;9.926;2023-12-04T08:19:18;47.28;;;18.08;;
17953;SDS011;9102;53.548;9.926;2023-12-04T08:21:45;47.63;;;17.38;;
17953;SDS011;9102;53.548;9.926;2023-12-04T08:24:12;50.80;;;18.83;;
17953;SDS011;9102;53.548;9.926;2023-12-04T08:26:41;50.05;;;17.38;;
17953;SDS011;9102;53.548;9.926;2023-12-04T08:29:08;46.30;;;18.25;;
17953;SDS011;9102;53.548;9.926;2023-12-04T08:31:34;48.67;;;17.15;;
17953;SDS011;9102;53.548;9.926;2023-12-04T08:34:01;71.85;;;28.10;;
17953;SDS011;9102;53.548;9.926;2023-12-04T08:36:28;45.22;;;17.35;;
17953;SDS011;9102;53.548;9.926;2023-12-04T08:38:55;40.50;;;16.33;;
17953;SDS011;9102;53.548;9.926;2023-12-04T08:41:21;51.33;;;18.17;;
17953;SDS011;9102;53.548;9.926;2023-12-04T08:43:50;48.03;;;17.92;;
17953;SDS011;9102;53.548;9.926;2023-12-04T08:46:16;47.45;;;18.08;;
17953;SDS011;9102;53.548;9.926;2023-12-04T08:48:43;52.10;;;19.55;;
17953;SDS011;9102;53.548;9.926;2023-12-04T08:51:14;43.65;;;16.52;;
17953;SDS011;9102;53.548;9.926;2023-12-04T08:53:41;45.35;;;16.48;;
17953;SDS011;9102;53.548;9.926;2023-12-04T08:56:09;42.53;;;16.98;;
17953;SDS011;9102;53.548;9.926;2023-12-04T08:58:36;44.80;;;17.58;;
17953;SDS011;9102;53.548;9.926;2023-12-04T09:01:05;45.75;;;17.85;;
17953;SDS011;9102;53.548;9.926;2023-12-04T09:03:32;51.28;;;17.33;;
17953;SDS011;9102;53.548;9.926;2023-12-04T09:05:59;48.90;;;17.80;;
17953;SDS011;9102;53.548;9.926;2023-12-04T09:08:26;53.20;;;18.67;;
17953;SDS011;9102;53.548;9.926;2023-12-04T09:10:53;49.88;;;17.92;;
17953;SDS011;9102;53.548;9.926;2023-12-04T09:13:22;50.70;;;17.80;;
17953;SDS011;9102;53.548;9.926;2023-12-04T09:15:49;43.70;;;16.67;;
17953;SDS011;9102;53.548;9.926;2023-12-04T09:18:17;43.40;;;17.63;;
17953;SDS011;9102;53.548;9.926;2023-12-04T09:20:43;43.83;;;17.90;;
17953;SDS011;9102;53.548;9.926;2023-12-04T09:23:10;48.55;;;16.90;;
17953;SDS011;9102;53.548;9.926;2023-12-04T09:25:37;41.95;;;17.13;;
17953;SDS011;9102;53.548;9.926;2023-12-04T09:28:04;47.30;;;17.83;;
17953;SDS011;9102;53.548;9.926;2023-12-04T09:30:31;44.08;;;17.35;;
17953;SDS011;9102;53.548;9.926;2023-12-04T09:32:57;44.47;;;17.17;;
17953;SDS011;9102;53.548;9.926;2023-12-04T09:35:25;50.65;;;17.90;;
17953;SDS011;9102;53.548;9.926;2023-12-04T09:37:52;51.88;;;18.50;;
17953;SDS011;9102;53.548;9.926;2023-12-04T09:40:19;55.03;;;18.92;;
17953;SDS011;9102;53.548;9.926;2023-12-04T09:42:46;47.78;;;17.08;;
17953;SDS011;9102;53.548;9.926;2023-12-04T09:45:13;46.72;;;17.58;;
17953;SDS011;9102;53.548;9.926;2023-12-04T09:47:41;49.00;;;17.52;;
17953;SDS011;9102;53.548;9.926;2023-12-04T09:50:08;50.15;;;17.13;;
17953;SDS011;9102;53.548;9.926;2023-12-04T09:52:38;43.67;;;18.23;;
17953;SDS011;9102;53.548;9.926;2023-12-04T09:55:05;45.40;;;17.90;;
17953;SDS011;9102;53.548;9.926;2023-12-04T09:57:32;51.55;;;18.80;;
17953;SDS011;9102;53.548;9.926;2023-12-04T10:00:00;47.03;;;18.15;;
17953;SDS011;9102;53.548;9.926;2023-12-04T10:02:31;55.75;;;18.02;;
17953;SDS011;9102;53.548;9.926;2023-12-04T10:04:58;44.42;;;19.20;;
17953;SDS011;9102;53.548;9.926;2023-12-04T10:07:26;45.40;;;17.17;;
17953;SDS011;9102;53.548;9.926;2023-12-04T10:09:54;43.35;;;16.98;;
17953;SDS011;9102;53.548;9.926;2023-12-04T10:12:21;45.00;;;17.67;;
17953;SDS011;9102;53.548;9.926;2023-12-04T10:14:58;43.05;;;17.38;;
17953;SDS011;9102;53.548;9.926;2023-12-04T10:17:32;38.72;;;16.23;;
17953;SDS011;9102;53.548;9.926;2023-12-04T10:20:04;48.42;;;17.10;;
17953;SDS011;9102;53.548;9.926;2023-12-04T10:22:36;42.20;;;17.10;;
17953;SDS011;9102;53.548;9.926;2023-12-04T10:25:12;46.58;;;16.70;;
17953;SDS011;9102;53.548;9.926;2023-12-04T10:27:40;42.80;;;16.27;;
17953;SDS011;9102;53.548;9.926;2023-12-04T10:30:09;38.53;;;16.90;;
17953;SDS011;9102;53.548;9.926;2023-12-04T10:32:38;40.10;;;17.45;;
17953;SDS011;9102;53.548;9.926;2023-12-04T10:35:06;43.90;;;16.67;;
17953;SDS011;9102;53.548;9.926;2023-12-04T10:37:35;38.67;;;16.45;;
17953;SDS011;9102;53.548;9.926;2023-12-04T10:40:03;41.15;;;16.20;;
17953;SDS011;9102;53.548;9.926;2023-12-04T10:42:35;45.35;;;17.60;;
17953;SDS011;9102;53.548;9.926;2023-12-04T10:45:01;45.50;;;17.10;;
17953;SDS011;9102;53.548;9.926;2023-12-04T10:47:31;42.50;;;16.50;;
17953;SDS011;9102;53.548;9.926;2023-12-04T10:50:02;43.63;;;16.38;;
17953;SDS011;9102;53.548;9.926;2023-12-04T10:52:30;41.17;;;16.70;;
17953;SDS011;9102;53.548;9.926;2023-12-04T10:54:57;38.38;;;15.75;;
17953;SDS011;9102;53.548;9.926;2023-12-04T10:57:25;47.88;;;17.33;;
17953;SDS011;9102;53.548;9.926;2023-12-04T10:59:56;40.33;;;16.00;;
17953;SDS011;9102;53.548;9.926;2023-12-04T11:02:25;39.65;;;15.75;;
17953;SDS011;9102;53.548;9.926;2023-12-04T11:04:54;37.25;;;16.08;;
17953;SDS011;9102;53.548;9.926;2023-12-04T11:07:24;40.47;;;16.10;;
17953;SDS011;9102;53.548;9.926;2023-12-04T11:09:53;40.10;;;16.15;;
17953;SDS011;9102;53.548;9.926;2023-12-04T11:12:21;35.38;;;15.55;;
17953;SDS011;9102;53.548;9.926;2023-12-04T11:14:58;38.70;;;15.40;;
17953;SDS011;9102;53.548;9.926;2023-12-04T11:17:28;42.35;;;15.10;;
17953;SDS011;9102;53.548;9.926;2023-12-04T11:20:02;35.33;;;14.93;;
17953;SDS011;9102;53.548;9.926;2023-12-04T11:22:36;38.85;;;16.17;;
17953;SDS011;9102;53.548;9.926;2023-12-04T11:25:05;41.17;;;16.33;;
17953;SDS011;9102;53.548;9.926;2023-12-04T11:27:34;38.03;;;16.63;;
17953;SDS011;9102;53.548;9.926;2023-12-04T11:30:03;33.85;;;14.77;;
17953;SDS011;9102;53.548;9.926;2023-12-04T11:32:31;33.35;;;15.15;;
17953;SDS011;9102;53.548;9.926;2023-12-04T11:34:59;38.75;;;16.05;;
17953;SDS011;9102;53.548;9.926;2023-12-04T11:37:27;36.05;;;15.23;;
17953;SDS011;9102;53.548;9.926;2023-12-04T11:39:54;36.63;;;15.10;;
17953;SDS011;9102;53.548;9.926;2023-12-04T11:42:23;29.10;;;13.68;;
17953;SDS011;9102;53.548;9.926;2023-12-04T11:44:55;36.70;;;14.65;;
17953;SDS011;9102;53.548;9.926;2023-12-04T11:47:25;33.38;;;13.98;;
17953;SDS011;9102;53.548;9.926;2023-12-04T11:49:55;36.72;;;14.98;;
17953;SDS011;9102;53.548;9.926;2023-12-04T11:52:31;36.63;;;13.52;;
17953;SDS011;9102;53.548;9.926;2023-12-04T11:55:00;35.20;;;14.32;;
17953;SDS011;9102;53.548;9.926;2023-12-04T11:57:31;31.23;;;14.05;;
17953;SDS011;9102;53.548;9.926;2023-12-04T12:00:12;34.47;;;13.65;;
17953;SDS011;9102;53.548;9.926;2023-12-04T12:02:48;33.53;;;14.13;;
17953;SDS011;9102;53.548;9.926;2023-12-04T12:05:28;30.38;;;13.50;;
17953;SDS011;9102;53.548;9.926;2023-12-04T12:08:00;36.28;;;13.98;;
17953;SDS011;9102;53.548;9.926;2023-12-04T12:10:28;29.38;;;13.55;;
17953;SDS011;9102;53.548;9.926;2023-12-04T12:12:55;31.20;;;13.35;;
17953;SDS011;9102;53.548;9.926;2023-12-04T12:15:22;28.60;;;13.10;;
17953;SDS011;9102;53.548;9.926;2023-12-04T12:17:51;34.28;;;13.90;;
17953;SDS011;9102;53.548;9.926;2023-12-04T12:20:18;32.67;;;13.63;;
17953;SDS011;9102;53.548;9.926;2023-12-04T12:22:47;34.13;;;13.30;;
17953;SDS011;9102;53.548;9.926;2023-12-04T12:25:15;30.08;;;13.40;;
17953;SDS011;9102;53.548;9.926;2023-12-04T12:27:43;29.70;;;13.02;;
17953;SDS011;9102;53.548;9.926;2023-12-04T12:30:11;33.13;;;14.13;;
17953;SDS011;9102;53.548;9.926;2023-12-04T12:32:38;29.75;;;13.15;;
17953;SDS011;9102;53.548;9.926;2023-12-04T12:35:07;30.40;;;13.00;;
17953;SDS011;9102;53.548;9.926;2023-12-04T12:37:34;32.85;;;14.30;;
17953;SDS011;9102;53.548;9.926;2023-12-04T12:40:01;30.70;;;13.23;;
17953;SDS011;9102;53.548;9.926;2023-12-04T12:42:30;32.88;;;13.70;;
17953;SDS011;9102;53.548;9.926;2023-12-04T12:44:59;32.83;;;13.82;;
17953;SDS011;9102;53.548;9.926;2023-12-04T12:47:29;33.97;;;13.70;;
17953;SDS011;9102;53.548;9.926;2023-12-04T12:49:56;32.72;;;13.45;;
17953;SDS011;9102;53.548;9.926;2023-12-04T12:52:24;36.08;;;12.88;;
17953;SDS011;9102;53.548;9.926;2023-12-04T12:54:52;32.20;;;14.25;;
17953;SDS011;9102;53.548;9.926;2023-12-04T12:57:19;28.38;;;12.93;;
17953;SDS011;9102;53.548;9.926;2023-12-04T12:59:46;32.60;;;13.45;;
17953;SDS011;9102;53.548;9.926;2023-12-04T13:02:13;30.35;;;12.82;;
17953;SDS011;9102;53.548;9.926;2023-12-04T13:04:41;34.55;;;13.98;;
17953;SDS011;9102;53.548;9.926;2023-12-04T13:07:09;33.28;;;13.18;;
17953;SDS011;9102;53.548;9.926;2023-12-04T13:09:38;33.83;;;13.98;;
17953;SDS011;9102;53.548;9.926;2023-12-04T13:12:05;33.15;;;13.90;;
17953;SDS011;9102;53.548;9.926;2023-12-04T13:14:33;31.42;;;13.50;;
17953;SDS011;9102;53.548;9.926;2023-12-04T13:17:01;31.88;;;12.88;;
17953;SDS011;9102;53.548;9.926;2023-12-04T13:19:28;32.42;;;13.07;;
17953;SDS011;9102;53.548;9.926;2023-12-04T13:21:56;31.50;;;13.48;;
17953;SDS011;9102;53.548;9.926;2023-12-04T13:24:23;30.60;;;12.93;;
17953;SDS011;9102;53.548;9.926;2023-12-04T13:26:52;28.20;;;11.95;;
17953;SDS011;9102;53.548;9.926;2023-12-04T13:29:19;32.45;;;13.20;;
17953;SDS011;9102;53.548;9.926;2023-12-04T13:31:45;30.40;;;12.52;;
17953;SDS011;9102;53.548;9.926;2023-12-04T13:34:14;29.27;;;12.35;;
17953;SDS011;9102;53.548;9.926;2023-12-04T13:36:41;31.05;;;13.48;;
17953;SDS011;9102;53.548;9.926;2023-12-04T13:39:09;31.20;;;13.93;;
17953;SDS011;9102;53.548;9.926;2023-12-04T13:41:41;32.67;;;13.70;;
17953;SDS011;9102;53.548;9.926;2023-12-04T13:44:33;28.23;;;12.75;;
17953;SDS011;9102;53.548;9.926;2023-12-04T13:47:00;32.42;;;14.18;;
17953;SDS011;9102;53.548;9.926;2023-12-04T13:49:27;29.40;;;12.75;;
17953;SDS011;9102;53.548;9.926;2023-12-04T13:51:54;42.90;;;18.27;;
17953;SDS011;9102;53.548;9.926;2023-12-04T13:54:21;34.58;;;14.10;;
17953;SDS011;9102;53.548;9.926;2023-12-04T13:56:59;36.90;;;14.77;;
17953;SDS011;9102;53.548;9.926;2023-12-04T13:59:29;28.17;;;12.32;;
17953;SDS011;9102;53.548;9.926;2023-12-04T14:01:59;25.80;;;12.20;;
17953;SDS011;9102;53.548;9.926;2023-12-04T14:04:29;32.70;;;12.65;;
17953;SDS011;9102;53.548;9.926;2023-12-04T14:06:56;32.28;;;13.18;;
17953;SDS011;9102;53.548;9.926;2023-12-04T14:09:23;29.80;;;12.57;;
17953;SDS011;9102;53.548;9.926;2023-12-04T14:11:49;33.17;;;13.75;;
17953;SDS011;9102;53.548;9.926;2023-12-04T14:14:16;28.92;;;11.88;;
17953;SDS011;9102;53.548;9.926;2023-12-04T14:16:43;30.92;;;13.07;;
17953;SDS011;9102;53.548;9.926;2023-12-04T14:19:12;32.67;;;13.02;;
17953;SDS011;9102;53.548;9.926;2023-12-04T14:21:42;30.27;;;11.93;;
17953;SDS011;9102;53.548;9.926;2023-12-04T14:24:08;29.00;;;12.52;;
17953;SDS011;9102;53.548;9.926;2023-12-04T14:26:35;31.50;;;12.70;;
17953;SDS011;9102;53.548;9.926;2023-12-04T14:29:02;32.00;;;13.25;;
17953;SDS011;9102;53.548;9.926;2023-12-04T14:31:29;28.60;;;11.80;;
17953;SDS011;9102;53.548;9.926;2023-12-04T14:33:56;33.63;;;12.65;;
17953;SDS011;9102;53.548;9.926;2023-12-04T14:36:24;31.15;;;12.35;;